Airfield :
LOGIN :

Register | Disclaimer

   EN    FR    IT 

 










Legend :    VFR   Marginal VFR   IFR   Intensive IFR   Very Intensive IFR
Visi :
Ceiling :
>= 8 km
>= 3000ft
5 to 8 km
1000 to 3000 ft
1500m to 5 km
500 to 1000 ft
800 to 1500m
200 to 500 ft
< 800m
< 200 ft
Symbols :   Thunderstorms  Fog  Heavy snow  Heavy precipitations  Wind > 20 kt
SIGMETs :     Misc.  Thunderstorms  Icing  Turbulence  Mountain Waves  Volcanic Ashes






- Airport Elevation : 236 ft
- IATA code : MMX


ESMS - Malmö Sturup

CURRENT METAR :
  • 191250Z 08009KT 9999 SCT035 BKN046 13/06 Q1021

EXPIRED METARs :
  • 191220Z 07009KT 9999 SCT037 BKN048 14/04 Q1021
  • 191150Z 04007KT 9999 BKN047 13/05 Q1021
  • 191120Z 05011KT 9999 FEW038 BKN049 13/05 Q1021
  • 191050Z 09008KT 040V130 9999 SCT044 14/03 Q1021

TAF TAF ESMS
Valid from the 19 at 12:00 until the 20 at 12:00 UTC


191109Z 1912/2012 07010KT 9999 SCT040



MET'MAP, your aeronautical weather chart ! - Copyright ORBIFLY December 2007 - Disclaimer

ORBIFLY MET'MAP TEAM :

Programming & Development : Alexandra Zaïnal
Concept & original design : Baudouin d'Aumeries
Assistance for programming : Marc-Olivier Méhu
Technical & hardware support : Manuel Goepfert

Contact : metmap@orbifly.com




SOURCES & CREDITS :

   NOAA